createdAt,value
2018-05-06T00:00:51.713Z,63.40
2018-05-06T00:03:19.248Z,63.42
2018-05-06T00:05:46.768Z,63.62
2018-05-06T00:08:14.356Z,63.73
2018-05-06T00:10:41.931Z,63.54
2018-05-06T00:13:09.523Z,64.03
2018-05-06T00:15:37.233Z,63.90
2018-05-06T00:18:04.860Z,64.11
2018-05-06T00:20:32.403Z,64.52
2018-05-06T00:22:59.947Z,64.79
2018-05-06T00:25:27.489Z,64.65
2018-05-06T00:27:55.048Z,64.96
2018-05-06T00:30:22.603Z,64.95
2018-05-06T00:32:50.174Z,65.30
2018-05-06T00:35:17.727Z,65.28
2018-05-06T00:37:45.267Z,65.67
2018-05-06T00:40:12.828Z,65.60
2018-05-06T00:42:40.402Z,65.58
2018-05-06T00:45:07.961Z,65.63
2018-05-06T00:47:35.504Z,65.79
2018-05-06T00:50:03.079Z,65.54
2018-05-06T00:52:30.653Z,65.57
2018-05-06T00:54:58.255Z,65.75
2018-05-06T00:57:25.793Z,65.55
2018-05-06T00:59:53.333Z,65.70
2018-05-06T01:02:20.910Z,65.86
2018-05-06T01:04:48.484Z,66.15
2018-05-06T01:07:16.053Z,66.01
2018-05-06T01:09:43.598Z,66.13
2018-05-06T01:12:11.153Z,65.99
2018-05-06T01:14:38.712Z,65.68
2018-05-06T01:17:06.253Z,65.55
2018-05-06T01:19:33.781Z,66.05
2018-05-06T01:22:01.347Z,66.32
2018-05-06T01:24:28.894Z,66.03
2018-05-06T01:26:56.449Z,66.30
2018-05-06T01:29:23.998Z,66.47
2018-05-06T01:31:51.597Z,66.21
2018-05-06T01:34:19.148Z,66.14
2018-05-06T01:36:46.691Z,66.15
2018-05-06T01:39:14.268Z,65.96
2018-05-06T01:41:41.820Z,66.05
2018-05-06T01:44:09.342Z,66.27
2018-05-06T01:46:36.917Z,66.83
2018-05-06T01:49:04.473Z,66.57
2018-05-06T01:51:32.009Z,66.66
2018-05-06T01:53:59.549Z,66.80
2018-05-06T01:56:27.098Z,66.81
2018-05-06T01:58:54.736Z,67.14
2018-05-06T02:01:22.307Z,67.25
2018-05-06T02:03:49.865Z,67.50
2018-05-06T02:06:17.392Z,67.70
2018-05-06T02:08:44.983Z,67.71
2018-05-06T02:11:12.521Z,67.98
2018-05-06T02:13:40.106Z,67.55
2018-05-06T02:16:07.664Z,67.58
2018-05-06T02:18:35.217Z,67.15
2018-05-06T02:21:02.795Z,66.83
2018-05-06T02:23:30.398Z,66.54
2018-05-06T02:25:58.036Z,66.39
2018-05-06T02:28:25.597Z,66.61
2018-05-06T02:30:53.139Z,66.69
2018-05-06T02:33:20.691Z,66.80
2018-05-06T02:35:48.274Z,67.02
2018-05-06T02:38:15.832Z,66.98
2018-05-06T02:40:43.507Z,67.16
2018-05-06T02:43:11.100Z,67.27
2018-05-06T02:45:38.688Z,67.61
2018-05-06T02:48:06.299Z,67.69
2018-05-06T02:50:33.839Z,67.80
2018-05-06T02:53:01.392Z,67.93
2018-05-06T02:55:29.066Z,67.91
2018-05-06T02:57:56.631Z,68.23
2018-05-06T03:00:24.285Z,68.42
2018-05-06T03:02:51.829Z,68.90
2018-05-06T03:05:19.392Z,69.02
2018-05-06T03:07:46.935Z,69.23
2018-05-06T03:10:14.529Z,69.43
2018-05-06T03:12:42.155Z,69.37
2018-05-06T03:15:09.711Z,69.14
2018-05-06T03:17:37.275Z,67.94
2018-05-06T03:20:04.814Z,67.82
2018-05-06T03:22:32.339Z,67.87
2018-05-06T03:24:59.875Z,67.64
2018-05-06T03:27:28.349Z,67.97
2018-05-06T03:29:55.871Z,67.31
2018-05-06T03:32:23.416Z,66.94
2018-05-06T03:34:50.979Z,67.25
2018-05-06T03:37:18.526Z,67.46
2018-05-06T03:39:46.154Z,67.69
2018-05-06T03:42:13.694Z,67.59
2018-05-06T03:44:41.255Z,68.04
2018-05-06T03:47:08.795Z,67.60
2018-05-06T03:49:36.388Z,66.74
2018-05-06T03:52:03.971Z,66.04
2018-05-06T03:54:31.494Z,66.03
2018-05-06T03:57:11.863Z,64.74
2018-05-06T03:59:51.293Z,64.32
2018-05-06T04:02:40.566Z,64.93
2018-05-06T04:05:08.132Z,64.02
2018-05-06T04:07:35.739Z,63.83
2018-05-06T04:10:03.251Z,64.70
2018-05-06T04:12:30.848Z,64.02
2018-05-06T04:14:58.378Z,63.56
2018-05-06T04:17:25.922Z,63.41
2018-05-06T04:19:53.485Z,63.94
2018-05-06T04:22:21.042Z,64.28
2018-05-06T04:24:48.675Z,64.22
2018-05-06T04:27:16.267Z,63.13
2018-05-06T04:29:43.827Z,63.25
2018-05-06T04:32:11.397Z,62.73
2018-05-06T04:34:38.932Z,63.20
2018-05-06T04:37:06.479Z,62.63
2018-05-06T04:39:34.049Z,62.48
2018-05-06T04:42:01.580Z,62.57
2018-05-06T04:44:29.146Z,62.11
2018-05-06T04:46:56.695Z,62.18
2018-05-06T04:49:24.247Z,61.23
2018-05-06T04:51:51.877Z,60.58
2018-05-06T04:54:19.492Z,60.42
2018-05-06T04:56:47.173Z,58.99
2018-05-06T04:59:14.884Z,58.30
2018-05-06T05:01:42.418Z,58.27
2018-05-06T05:04:10.069Z,59.01
2018-05-06T05:06:37.700Z,59.01
2018-05-06T05:09:06.241Z,58.99
2018-05-06T05:11:33.793Z,58.91
2018-05-06T05:14:01.418Z,57.80
2018-05-06T05:16:29.089Z,57.71
2018-05-06T05:18:56.643Z,58.56
2018-05-06T05:21:24.185Z,58.12
2018-05-06T05:23:51.766Z,58.56
2018-05-06T05:26:19.352Z,57.36
2018-05-06T05:28:46.930Z,57.07
2018-05-06T05:31:14.549Z,56.37
2018-05-06T05:33:42.128Z,55.98
2018-05-06T05:36:09.659Z,55.50
2018-05-06T05:38:37.219Z,54.84
2018-05-06T05:41:04.767Z,54.95
2018-05-06T05:43:32.403Z,54.60
2018-05-06T05:45:59.986Z,54.63
2018-05-06T05:48:27.538Z,53.86
2018-05-06T05:50:55.099Z,53.29
2018-05-06T05:53:22.644Z,53.13
2018-05-06T05:55:50.198Z,52.30
2018-05-06T05:58:17.832Z,52.02
2018-05-06T06:00:45.516Z,51.60
2018-05-06T06:03:13.494Z,51.95
2018-05-06T06:05:41.672Z,51.82
2018-05-06T06:08:09.228Z,50.54
2018-05-06T06:10:36.802Z,50.16
2018-05-06T06:13:04.396Z,48.90
2018-05-06T06:15:32.078Z,50.25
2018-05-06T06:17:59.624Z,49.23
2018-05-06T06:20:27.300Z,49.28
2018-05-06T06:22:55.024Z,48.62
2018-05-06T06:25:23.352Z,49.00
2018-05-06T06:27:50.930Z,49.42
2018-05-06T06:30:18.854Z,49.01
2018-05-06T06:32:46.419Z,47.41
2018-05-06T06:35:14.022Z,48.21
2018-05-06T06:37:41.544Z,47.34
2018-05-06T06:40:09.236Z,46.33
2018-05-06T06:42:36.813Z,47.32
2018-05-06T06:45:04.381Z,46.54
2018-05-06T06:47:31.971Z,45.16
2018-05-06T06:49:59.558Z,45.45
2018-05-06T06:52:27.157Z,46.06
2018-05-06T06:54:55.994Z,45.75
2018-05-06T06:57:23.563Z,45.34
2018-05-06T07:05:46.444Z,43.64
2018-05-06T07:08:13.998Z,41.94
2018-05-06T07:10:41.549Z,41.89
2018-05-06T07:13:09.101Z,44.07
2018-05-06T07:15:36.665Z,43.58
2018-05-06T07:18:04.251Z,43.68
2018-05-06T07:20:31.807Z,42.58
2018-05-06T07:22:59.379Z,42.39
2018-05-06T07:25:26.930Z,41.89
2018-05-06T07:27:54.474Z,42.18
2018-05-06T07:30:22.028Z,41.95
2018-05-06T07:32:49.591Z,41.49
2018-05-06T07:35:17.237Z,42.34
2018-05-06T07:37:44.763Z,41.49
2018-05-06T07:40:12.332Z,40.20
2018-05-06T07:42:39.887Z,40.54
2018-05-06T07:45:07.537Z,41.31
2018-05-06T07:47:35.097Z,42.30
2018-05-06T07:50:02.686Z,41.20
2018-05-06T07:52:30.370Z,40.12
2018-05-06T07:54:57.964Z,39.80
2018-05-06T07:57:25.479Z,39.97
2018-05-06T07:59:53.009Z,39.06
2018-05-06T08:02:20.557Z,38.43
2018-05-06T08:04:48.109Z,38.48
2018-05-06T08:07:15.671Z,38.72
2018-05-06T08:09:43.252Z,37.95
2018-05-06T08:12:10.765Z,38.48
2018-05-06T08:14:38.317Z,39.11
2018-05-06T08:17:05.890Z,38.72
2018-05-06T08:19:33.418Z,37.22
2018-05-06T08:22:01.005Z,38.08
2018-05-06T08:24:28.807Z,37.64
2018-05-06T08:26:56.350Z,37.28
2018-05-06T08:29:23.908Z,37.30
2018-05-06T08:31:51.461Z,36.53
2018-05-06T08:34:18.998Z,36.18
2018-05-06T08:36:46.556Z,36.41
2018-05-06T08:39:14.112Z,35.15
2018-05-06T08:41:41.806Z,36.06
2018-05-06T08:44:09.420Z,35.86
2018-05-06T08:46:36.969Z,35.28
2018-05-06T08:49:04.560Z,36.12
2018-05-06T08:51:32.168Z,37.02
2018-05-06T08:53:59.665Z,35.96
2018-05-06T08:56:27.209Z,35.09
2018-05-06T08:58:54.930Z,35.08
2018-05-06T09:01:22.478Z,34.46
2018-05-06T09:03:50.006Z,34.71
2018-05-06T09:06:17.557Z,34.55
2018-05-06T09:08:45.169Z,35.23
2018-05-06T09:11:12.872Z,34.10
2018-05-06T09:13:40.352Z,35.12
2018-05-06T09:16:07.946Z,33.95
2018-05-06T09:18:35.504Z,34.31
2018-05-06T09:21:03.144Z,32.62
2018-05-06T09:23:30.801Z,32.15
2018-05-06T09:25:58.361Z,32.46
2018-05-06T09:28:25.936Z,32.95
2018-05-06T09:30:53.635Z,32.56
2018-05-06T09:33:21.187Z,32.36
2018-05-06T09:35:48.728Z,32.87
2018-05-06T09:38:17.412Z,31.12
2018-05-06T09:40:45.043Z,32.78
2018-05-06T09:43:18.836Z,31.01
2018-05-06T09:45:46.350Z,31.78
2018-05-06T09:48:13.920Z,31.41
2018-05-06T09:50:41.504Z,31.00
2018-05-06T09:53:09.056Z,31.60
2018-05-06T09:55:36.609Z,31.83
2018-05-06T09:58:04.214Z,31.30
2018-05-06T10:00:31.770Z,31.17
2018-05-06T10:02:59.310Z,31.27
2018-05-06T10:05:26.926Z,31.20
2018-05-06T10:07:54.465Z,30.80
2018-05-06T10:10:22.034Z,30.86
2018-05-06T10:12:49.673Z,30.04
2018-05-06T10:15:17.264Z,30.71
2018-05-06T10:17:44.863Z,29.94
2018-05-06T10:20:12.425Z,29.73
2018-05-06T10:22:40.237Z,29.05
2018-05-06T10:25:07.794Z,29.49
2018-05-06T10:27:35.372Z,29.57
2018-05-06T10:30:02.931Z,30.04
2018-05-06T10:32:30.486Z,29.64
2018-05-06T10:34:59.652Z,29.96
2018-05-06T10:37:27.259Z,28.54
2018-05-06T10:39:54.870Z,29.19
2018-05-06T10:42:22.504Z,28.98
2018-05-06T10:44:50.060Z,29.24
2018-05-06T10:52:29.382Z,29.02
2018-05-06T10:55:17.724Z,27.98
2018-05-06T10:57:57.950Z,28.42
2018-05-06T11:00:29.385Z,29.05
2018-05-06T11:03:03.510Z,29.09
2018-05-06T11:08:30.647Z,28.33
2018-05-06T11:11:09.059Z,28.80
2018-05-06T11:13:57.422Z,29.36
2018-05-06T11:19:18.388Z,27.92
2018-05-06T11:24:47.980Z,27.34
2018-05-06T11:27:24.691Z,27.16
2018-05-06T11:30:01.262Z,25.56
2018-05-06T11:35:53.392Z,22.64
2018-05-06T11:38:42.475Z,21.00
2018-05-06T11:41:10.135Z,19.79
2018-05-06T11:43:37.748Z,19.48
2018-05-06T11:46:05.290Z,19.76
2018-05-06T11:48:32.839Z,18.58
2018-05-06T11:51:00.396Z,17.32
2018-05-06T11:53:27.937Z,19.17
2018-05-06T11:55:55.459Z,17.77
2018-05-06T11:58:23.006Z,15.94
2018-05-06T12:00:50.547Z,15.72
2018-05-06T12:03:18.098Z,15.48
2018-05-06T12:05:45.724Z,14.85
2018-05-06T12:08:13.469Z,14.77
2018-05-06T12:10:41.028Z,14.25
2018-05-06T12:13:09.551Z,12.57
2018-05-06T12:15:37.314Z,13.49
2018-05-06T12:18:04.881Z,12.44
2018-05-06T12:20:32.428Z,12.49
2018-05-06T12:22:59.966Z,13.28
2018-05-06T12:25:27.493Z,12.20
2018-05-06T12:27:55.145Z,12.62
2018-05-06T12:30:23.146Z,13.41
2018-05-06T12:32:50.686Z,12.98
2018-05-06T12:35:18.240Z,12.08
2018-05-06T12:37:45.767Z,12.42
2018-05-06T12:40:13.351Z,10.91
2018-05-06T12:42:40.936Z,11.47
2018-05-06T12:45:08.489Z,10.78
2018-05-06T12:47:36.024Z,10.17
2018-05-06T12:50:03.683Z,9.05
2018-05-06T12:52:31.243Z,9.91
2018-05-06T12:54:58.839Z,9.72
2018-05-06T12:57:26.400Z,9.45
2018-05-06T12:59:53.942Z,8.24
2018-05-06T13:02:21.496Z,8.81
2018-05-06T13:04:49.001Z,8.51
2018-05-06T13:07:16.538Z,8.44
2018-05-06T13:09:44.121Z,8.89
2018-05-06T13:12:11.672Z,9.75
2018-05-06T13:14:39.213Z,9.84
2018-05-06T13:17:06.807Z,9.66
2018-05-06T13:19:34.352Z,7.78
2018-05-06T13:22:01.977Z,7.29
2018-05-06T13:24:29.594Z,8.99
2018-05-06T13:26:57.257Z,8.94
2018-05-06T13:29:24.822Z,10.16
2018-05-06T13:31:52.444Z,8.67
2018-05-06T13:34:19.972Z,9.62
2018-05-06T13:36:47.532Z,9.09
2018-05-06T13:39:15.075Z,9.99
2018-05-06T13:41:42.609Z,9.53
2018-05-06T13:44:10.159Z,9.22
2018-05-06T13:46:37.701Z,8.89
2018-05-06T13:49:05.251Z,10.53
2018-05-06T13:51:32.814Z,9.38
2018-05-06T13:54:00.361Z,10.09
2018-05-06T13:56:27.908Z,8.78
2018-05-06T13:58:55.483Z,8.48
2018-05-06T14:01:23.041Z,9.28
2018-05-06T14:03:50.604Z,8.36
2018-05-06T14:06:18.272Z,8.11
2018-05-06T14:08:45.864Z,7.48
2018-05-06T14:11:13.420Z,7.68
2018-05-06T14:13:40.925Z,8.22
2018-05-06T14:16:08.499Z,8.41
2018-05-06T14:18:36.063Z,9.66
2018-05-06T14:21:03.648Z,7.91
2018-05-06T14:23:31.177Z,8.20
2018-05-06T14:25:58.724Z,8.59
2018-05-06T14:28:26.269Z,8.45
2018-05-06T14:30:53.839Z,8.68
2018-05-06T14:33:21.376Z,9.73
2018-05-06T14:35:48.908Z,8.32
2018-05-06T14:38:16.472Z,8.99
2018-05-06T14:40:44.093Z,8.37
2018-05-06T14:43:11.634Z,8.42
2018-05-06T14:45:39.166Z,7.95
2018-05-06T14:48:14.459Z,7.59
2018-05-06T14:50:42.004Z,7.56
2018-05-06T14:53:09.528Z,7.19
2018-05-06T14:55:37.247Z,7.32
2018-05-06T14:58:04.879Z,7.89
2018-05-06T15:00:32.419Z,7.96
2018-05-06T15:02:59.963Z,8.43
2018-05-06T15:05:27.527Z,8.22
2018-05-06T15:07:55.056Z,8.59
2018-05-06T15:10:22.674Z,7.36
2018-05-06T15:12:50.198Z,7.91
2018-05-06T15:15:17.779Z,7.49
2018-05-06T15:17:45.497Z,8.12
2018-05-06T15:20:13.056Z,8.79
2018-05-06T15:22:40.808Z,7.96
2018-05-06T15:25:08.395Z,8.01
2018-05-06T15:27:35.987Z,8.10
2018-05-06T15:30:03.537Z,7.66
2018-05-06T15:32:31.083Z,8.03
2018-05-06T15:34:58.602Z,7.75
2018-05-06T15:37:26.155Z,7.43
2018-05-06T15:39:53.715Z,7.21
2018-05-06T15:44:55.225Z,8.25
2018-05-06T15:47:22.794Z,7.62
2018-05-06T15:49:50.356Z,8.08
2018-05-06T15:52:18.111Z,8.42
2018-05-06T15:54:45.645Z,8.19
2018-05-06T15:57:13.178Z,9.40
2018-05-06T15:59:40.806Z,8.80
2018-05-06T16:02:14.307Z,8.35
2018-05-06T16:04:41.914Z,7.75
2018-05-06T16:07:09.419Z,7.50
2018-05-06T16:09:36.967Z,7.96
2018-05-06T16:12:04.569Z,7.68
2018-05-06T16:14:32.072Z,9.12
2018-05-06T16:16:59.602Z,8.61
2018-05-06T16:19:27.142Z,8.72
2018-05-06T16:21:54.695Z,9.03
2018-05-06T16:24:22.352Z,8.03
2018-05-06T16:26:49.909Z,9.74
2018-05-06T16:29:17.483Z,9.12
2018-05-06T16:31:45.006Z,9.93
2018-05-06T16:34:12.542Z,9.93
2018-05-06T16:36:40.155Z,9.61
2018-05-06T16:39:07.737Z,9.97
2018-05-06T16:41:35.292Z,9.73
2018-05-06T16:44:02.846Z,9.66
2018-05-06T16:46:30.393Z,9.51
2018-05-06T16:48:57.979Z,11.12
2018-05-06T16:51:25.507Z,10.48
2018-05-06T16:53:53.078Z,10.49
2018-05-06T16:56:20.631Z,10.61
2018-05-06T16:58:48.211Z,11.06
2018-05-06T17:01:16.212Z,10.65
2018-05-06T17:03:43.762Z,10.67
2018-05-06T17:06:11.367Z,10.33
2018-05-06T17:08:38.973Z,11.02
2018-05-06T17:11:08.684Z,11.37
2018-05-06T17:13:36.617Z,11.00
2018-05-06T17:16:04.215Z,11.08
2018-05-06T17:18:31.847Z,11.36
2018-05-06T17:20:59.465Z,11.27
2018-05-06T17:23:27.067Z,11.39
2018-05-06T17:25:54.605Z,11.32
2018-05-06T17:28:22.254Z,12.23
2018-05-06T17:30:49.792Z,12.51
2018-05-06T17:33:17.374Z,13.57
2018-05-06T17:35:45.156Z,14.66
2018-05-06T17:38:12.689Z,16.59
2018-05-06T17:40:40.454Z,17.39
2018-05-06T17:43:08.009Z,18.27
2018-05-06T17:45:35.643Z,19.08
2018-05-06T17:48:03.164Z,21.00
2018-05-06T17:50:30.723Z,20.66
2018-05-06T17:52:58.345Z,21.12
2018-05-06T17:55:25.948Z,21.47
2018-05-06T17:57:53.645Z,21.95
2018-05-06T18:00:21.205Z,21.90
2018-05-06T18:02:48.729Z,22.56
2018-05-06T18:05:16.301Z,23.10
2018-05-06T18:07:43.947Z,24.49
2018-05-06T18:10:11.585Z,24.06
2018-05-06T18:12:39.134Z,23.57
2018-05-06T18:15:06.812Z,24.39
2018-05-06T18:17:34.354Z,24.30
2018-05-06T18:20:01.900Z,24.53
2018-05-06T18:22:29.435Z,25.67
2018-05-06T18:24:56.991Z,26.04
2018-05-06T18:27:24.526Z,26.93
2018-05-06T18:29:52.090Z,26.48
2018-05-06T18:32:19.693Z,27.28
2018-05-06T18:34:47.256Z,27.71
2018-05-06T18:37:14.853Z,27.71
2018-05-06T18:39:42.424Z,28.35
2018-05-06T18:42:10.065Z,28.64
2018-05-06T18:44:37.597Z,29.47
2018-05-06T18:47:05.158Z,29.07
2018-05-06T18:49:32.696Z,30.04
2018-05-06T18:52:00.254Z,30.08
2018-05-06T18:54:28.030Z,30.60
2018-05-06T18:56:55.676Z,31.53
2018-05-06T18:59:23.166Z,31.92
2018-05-06T19:01:50.714Z,32.26
2018-05-06T19:04:18.290Z,32.04
2018-05-06T19:06:45.935Z,32.92
2018-05-06T19:09:13.503Z,32.22
2018-05-06T19:11:41.037Z,32.83
2018-05-06T19:14:10.675Z,32.88
2018-05-06T19:16:38.230Z,32.58
2018-05-06T19:19:05.757Z,33.09
2018-05-06T19:21:33.290Z,33.17
2018-05-06T19:24:02.071Z,34.00
2018-05-06T19:26:29.611Z,34.26
2018-05-06T19:28:57.139Z,34.21
2018-05-06T19:31:24.724Z,34.52
2018-05-06T19:33:52.270Z,35.02
2018-05-06T19:36:19.819Z,35.25
2018-05-06T19:38:47.528Z,35.81
2018-05-06T19:41:15.051Z,35.57
2018-05-06T19:43:42.584Z,35.47
2018-05-06T19:46:10.151Z,36.26
2018-05-06T19:48:37.758Z,35.52
2018-05-06T19:51:05.401Z,36.26
2018-05-06T19:53:33.105Z,37.41
2018-05-06T19:56:00.880Z,35.72
2018-05-06T19:58:28.436Z,36.11
2018-05-06T20:00:56.004Z,36.38
2018-05-06T20:03:23.616Z,37.42
2018-05-06T20:05:52.199Z,38.13
2018-05-06T20:08:19.855Z,36.75
2018-05-06T20:10:47.388Z,37.38
2018-05-06T20:13:14.939Z,37.02
2018-05-06T20:15:42.499Z,37.38
2018-05-06T20:18:10.050Z,36.89
2018-05-06T20:20:37.651Z,36.91
2018-05-06T20:23:05.183Z,36.05
2018-05-06T20:25:32.800Z,37.40
2018-05-06T20:28:00.381Z,37.33
2018-05-06T20:30:27.957Z,37.74
2018-05-06T20:32:55.593Z,37.06
2018-05-06T20:35:23.232Z,37.34
2018-05-06T20:37:50.755Z,37.76
2018-05-06T20:40:18.319Z,38.38
2018-05-06T20:42:45.871Z,37.86
2018-05-06T20:45:13.544Z,39.57
2018-05-06T20:47:41.091Z,39.92
2018-05-06T20:50:08.592Z,38.81
2018-05-06T20:52:36.195Z,39.44
2018-05-06T20:55:03.769Z,49.65
2018-05-06T20:57:31.286Z,50.94
2018-05-06T20:59:58.817Z,42.76
2018-05-06T21:02:26.545Z,43.02
2018-05-06T21:04:54.145Z,49.40
2018-05-06T21:07:21.643Z,48.42
2018-05-06T21:09:49.215Z,43.23
2018-05-06T21:12:16.748Z,47.17
2018-05-06T21:14:44.431Z,38.25
2018-05-06T21:17:12.090Z,35.19
2018-05-06T21:19:39.608Z,35.44
2018-05-06T21:22:07.374Z,35.39
2018-05-06T21:24:34.958Z,34.25
2018-05-06T21:27:02.482Z,35.08
2018-05-06T21:29:30.225Z,36.47
2018-05-06T21:31:57.759Z,35.44
2018-05-06T21:34:25.260Z,35.88
2018-05-06T21:36:52.914Z,36.63
2018-05-06T21:39:20.431Z,36.54
2018-05-06T21:41:47.938Z,37.48
2018-05-06T21:44:15.466Z,37.95
2018-05-06T21:46:42.961Z,38.64
2018-05-06T21:49:10.492Z,37.98
2018-05-06T21:51:38.007Z,39.26
2018-05-06T21:54:05.565Z,39.39
2018-05-06T21:56:33.087Z,38.58
2018-05-06T21:59:00.631Z,39.00
2018-05-06T22:01:28.191Z,39.48
2018-05-06T22:03:55.717Z,39.44
2018-05-06T22:06:23.236Z,39.84
2018-05-06T22:08:50.759Z,39.95
2018-05-06T22:11:18.299Z,40.29
2018-05-06T22:13:45.805Z,40.12
2018-05-06T22:16:13.289Z,40.64
2018-05-06T22:18:40.773Z,41.23
2018-05-06T22:21:08.263Z,40.87
2018-05-06T22:23:35.769Z,40.42
2018-05-06T22:26:03.296Z,40.45
2018-05-06T22:28:30.793Z,40.79
2018-05-06T22:30:58.308Z,40.77
2018-05-06T22:33:25.839Z,42.26
2018-05-06T22:35:53.362Z,42.57
2018-05-06T22:38:20.815Z,42.97
2018-05-06T22:40:48.311Z,42.59
2018-05-06T22:43:15.810Z,43.14
2018-05-06T22:45:43.332Z,43.42
2018-05-06T22:48:10.820Z,42.20
2018-05-06T22:50:38.325Z,42.71
2018-05-06T22:53:05.811Z,43.99
2018-05-06T22:55:33.358Z,43.86
2018-05-06T22:58:00.876Z,43.30
2018-05-06T23:00:28.422Z,43.37
2018-05-06T23:02:56.304Z,43.42
2018-05-06T23:05:23.808Z,42.65
2018-05-06T23:07:51.281Z,43.10
2018-05-06T23:10:18.793Z,43.03
2018-05-06T23:12:46.469Z,43.76
2018-05-06T23:15:14.985Z,43.48
2018-05-06T23:17:42.555Z,43.40
2018-05-06T23:20:10.251Z,43.72
2018-05-06T23:22:37.781Z,43.57
2018-05-06T23:25:05.267Z,43.45
2018-05-06T23:27:32.831Z,43.56
2018-05-06T23:30:00.472Z,43.20
2018-05-06T23:32:28.021Z,43.78
2018-05-06T23:34:55.530Z,43.90
2018-05-06T23:37:23.034Z,44.50
2018-05-06T23:39:50.551Z,44.45
2018-05-06T23:42:18.068Z,44.95
2018-05-06T23:44:45.677Z,44.99
2018-05-06T23:47:13.200Z,44.65
2018-05-06T23:49:40.897Z,45.92
2018-05-06T23:52:08.386Z,46.43
2018-05-06T23:54:36.096Z,45.93
2018-05-06T23:57:03.648Z,46.45
2018-05-06T23:59:31.117Z,46.35
